Main page
METAR-TAF:

METAR-TAF

Airports :

Shaikh Zayed International Airport

Rahim Yar Khan, Pakistan

latitude: 28-23-02N, longitude: 70-16-47E, elevation: 83 m

METAR: missing

Time: 03:17 (22:17 UTC)

Forecast

The report was made 6 hours and 17 minutes ago, at 16:00 UTC
Forecast valid from 22 at 18 UTC to 23 at 12 UTC
Wind 5 kt from the North
Visibility: 3000 m
Few clouds at a height of 12000 ft
smoke
Probability 30% :
Temporary
from 23 at 00 UTC to 23 at 04 UTC
Wind kt from the North
Visibility: 0800 m
fog

TAF: OPRK 221600Z 2218/2312 36005KT 3000 FU FEW120 TN05/2301Z TX22/2310Z PROB30 TEMPO 2300/2304 00000KT 0800 FG NSC

Weather observations and forecasts of more than 4000 airports (METAR and TAF reports).

The available stations are represented by yellow and red dots on the map.

Hover mouse over dot to see the name of the station.

Then click to see weather observations and forecasts.

To change the map : click on the green buttons with a black cross to zoom in, on the green button with a dash to zoom out, or on the green arrows for adjacent maps.


METAR-TAF: